Current | Forecast
Updated: 5:00 PM JST on April 24, 2018
Observed at Toyama Airport, Japan
Temperature 61°F
Humidity 94%
Dew Point 59°F
Wind Variable at 1 mph
Pressure 29.71 in (Steady)
Conditions Light Rain
Visibility 5.0 miles
UV 0 out of 16
Clouds (FEW) : 200 ft
Scattered Clouds (SCT) : 4000 ft
Overcast (OVC) : 7000 ft
Yesterday's Maximum 66°F
Yesterday's Minimum 57°F approx.
Yesterday's Heating Degree Days 3 approx.
Sunrise5:02 AM JST
Sunset6:29 PM JST
Moon Rise12:22 PM JST
Moon Set1:36 AM JST
Moon PhaseMoon Phase
Waxing Gibbous
Raw METARMETAR RJNT 240800Z VRB01KT 8000 -RA FEW002 SCT040 OVC070 16/15 Q1006


Monday
. High: 80° F.
Tuesday
. High: 80° F.
Wednesday
. High: 71° F.
Thursday
. High: 77° F.
Friday
. High: 78° F.
Saturday
. High: 77° F.
Sunday
. High: 78° F.
Monday
. High: 75° F.

Units: English | Metric

Find the Weather for any City, State or Zipcode, or Country:

U.S. State List | Severe Weather | Tropical Storms | Ski Conditions
United States | Canada | Central America | South America | Asia | Europe | Australia | Africa | Islands

Weather Underground

© Copyright 2018
The Weather Company, LLC